Walton, KY

10:24 PM EST on February 07, 2016 (GMT -0500)
Walton KY | | Change Station
CLOSE
Current Station
Personal Weather Station
Location: Walton, KY
Elevation: 912 ft
Nearby Weather Stations

Elev 912 ft 38.88 °N, 84.61 °W | Updated 36 seconds ago

Overcast
Overcast
43.0 °F
Feels Like 43 °F
N
2.2
Wind Variable Wind from West

Today
High -- | Low -- °F
--% Chance of Precip.
Yesterday
High -- | Low -- °F
Precip. -- in
Pressure 29.82 in
Visibility 10.0 miles
Clouds Overcast 7000 ft
Windchill 43 °F
Dew Point 23 °F
Humidity 44%
Rainfall 0.00 in
Snow Depth Not available.
7:39 AM 6:06 PM
Waning Crescent, 0% visible
METAR KCVG 080252Z 20006KT 10SM OVC070 07/M06 A2981 RMK AO2 SLP096 T00721056 58019
Pressure 29.82 in
Visibility 10.0 miles
Clouds Overcast 7000 ft
Windchill 43 °F
Dew Point 23 °F
Humidity 44%
Rainfall 0.00 in
Snow Depth Not available.
7:39 AM 6:06 PM
Waning Crescent, 0% visible
METAR KCVG 080252Z 20006KT 10SM OVC070 07/M06 A2981 RMK AO2 SLP096 T00721056 58019

10-Day Weather Forecast

Almanac

Astronomy

Feb. 07, 2016 Rise Set
Actual Time
Civil Twilight
Nautical Twilight
Astronomical Twilight
Moon
Length of Visible Light
Length of Day
Tomorrow will be .
, % of the Moon is Illuminated

Today's Extremes

State Highs State Lows

Community

WunderPhotos

Upload Photos

1,891,377 photos uploaded!

WunderBlog® & News

Nearby

Air Quality

  Air Quality AQ Index Pollutant
Not available.

Snow Depth

Station Depth Elevation

Earthquake Activity

City Distance Mag. Time & Date
Minimum magnitude displayed is 2.5.

Coastal Water Temperatures

Place Temperature

Stations

Nearby Weather Stations

Station Location Temp. Windchill Dew Point Humidity Wind Precip. Elev Updated Type
                   

Watches & Warnings

There are currently no watches in effect.